createdAt,value
2017-04-13T00:00:30.273Z,2.18
2017-04-13T00:01:28.898Z,2.30
2017-04-13T00:02:27.347Z,2.25
2017-04-13T00:03:25.801Z,2.62
2017-04-13T00:04:24.215Z,2.60
2017-04-13T00:05:22.946Z,3.30
2017-04-13T00:06:21.420Z,2.37
2017-04-13T00:07:19.840Z,2.78
2017-04-13T00:08:18.297Z,2.52
2017-04-13T00:09:16.796Z,2.75
2017-04-13T00:10:16.242Z,2.68
2017-04-13T00:11:14.638Z,2.90
2017-04-13T00:12:13.036Z,2.98
2017-04-13T00:13:11.478Z,2.90
2017-04-13T00:14:09.975Z,2.77
2017-04-13T00:15:08.640Z,2.90
2017-04-13T00:16:07.085Z,2.92
2017-04-13T00:17:05.613Z,3.03
2017-04-13T00:18:04.208Z,3.15
2017-04-13T00:19:02.675Z,3.23
2017-04-13T00:20:01.085Z,2.90
2017-04-13T00:21:00.420Z,2.85
2017-04-13T00:21:58.892Z,3.62
2017-04-13T00:22:57.289Z,3.28
2017-04-13T00:23:55.741Z,2.85
2017-04-13T00:24:54.271Z,3.53
2017-04-13T00:25:53.515Z,3.02
2017-04-13T00:26:52.031Z,2.90
2017-04-13T00:27:50.506Z,3.67
2017-04-13T00:28:48.993Z,3.65
2017-04-13T00:29:48.409Z,4.00
2017-04-13T00:30:46.858Z,3.12
2017-04-13T00:31:45.410Z,3.15
2017-04-13T00:32:43.991Z,3.55
2017-04-13T00:33:42.412Z,3.80
2017-04-13T00:34:40.894Z,3.37
2017-04-13T00:35:39.409Z,3.45
2017-04-13T00:36:37.877Z,3.33
2017-04-13T00:37:36.317Z,3.72
2017-04-13T00:38:34.944Z,3.75
2017-04-13T00:39:33.432Z,3.52
2017-04-13T00:40:32.017Z,3.28
2017-04-13T00:41:30.539Z,3.48
2017-04-13T00:42:30.981Z,3.62
2017-04-13T00:43:29.539Z,4.13
2017-04-13T00:44:27.920Z,3.43
2017-04-13T00:45:26.350Z,3.42
2017-04-13T00:46:24.820Z,4.05
2017-04-13T00:47:23.285Z,4.50
2017-04-13T00:48:21.877Z,3.72
2017-04-13T00:49:20.418Z,3.90
2017-04-13T00:50:18.843Z,4.05
2017-04-13T00:51:17.278Z,3.75
2017-04-13T00:52:15.701Z,3.72
2017-04-13T00:53:14.130Z,3.58
2017-04-13T00:54:12.583Z,4.43
2017-04-13T00:55:11.018Z,4.32
2017-04-13T00:56:09.493Z,4.10
2017-04-13T00:57:07.993Z,3.45
2017-04-13T00:58:06.457Z,4.05
2017-04-13T00:59:05.132Z,3.78
2017-04-13T01:00:04.156Z,4.45
2017-04-13T01:01:02.633Z,4.00
2017-04-13T01:02:01.592Z,4.33
2017-04-13T01:03:00.091Z,4.33
2017-04-13T01:03:58.795Z,4.48
2017-04-13T01:04:57.568Z,4.40
2017-04-13T01:05:56.078Z,4.43
2017-04-13T01:06:54.551Z,4.52
2017-04-13T01:07:52.998Z,4.88
2017-04-13T01:08:51.463Z,4.10
2017-04-13T01:09:50.007Z,4.92
2017-04-13T01:10:48.457Z,4.92
2017-04-13T01:11:46.917Z,4.05
2017-04-13T01:12:45.418Z,4.83
2017-04-13T01:13:43.934Z,4.35
2017-04-13T01:14:43.081Z,4.88
2017-04-13T01:15:41.465Z,4.60
2017-04-13T01:16:40.259Z,4.73
2017-04-13T01:17:38.726Z,4.18
2017-04-13T01:18:37.248Z,4.07
2017-04-13T01:19:36.532Z,4.18
2017-04-13T01:20:36.563Z,5.08
2017-04-13T01:21:35.051Z,4.87
2017-04-13T01:22:33.454Z,4.12
2017-04-13T01:23:31.866Z,4.80
2017-04-13T01:24:30.416Z,4.62
2017-04-13T01:25:28.962Z,4.30
2017-04-13T01:26:28.174Z,4.18
2017-04-13T01:27:26.720Z,4.73
2017-04-13T01:28:25.240Z,4.68
2017-04-13T01:29:23.702Z,3.95
2017-04-13T01:30:22.247Z,4.92
2017-04-13T01:31:20.680Z,4.22
2017-04-13T01:32:19.131Z,4.45
2017-04-13T01:33:17.649Z,4.48
2017-04-13T01:34:16.536Z,4.72
2017-04-13T01:35:15.107Z,4.43
2017-04-13T01:36:13.614Z,3.70
2017-04-13T01:37:12.034Z,4.23
2017-04-13T01:38:10.509Z,3.93
2017-04-13T01:39:08.941Z,4.32
2017-04-13T01:40:07.775Z,4.48
2017-04-13T01:41:06.177Z,4.13
2017-04-13T01:42:04.739Z,3.87
2017-04-13T01:43:03.191Z,4.13
2017-04-13T01:44:01.658Z,4.07
2017-04-13T01:45:00.094Z,4.03
2017-04-13T01:45:58.612Z,3.98
2017-04-13T01:46:57.054Z,4.12
2017-04-13T01:47:55.438Z,4.48
2017-04-13T01:48:53.834Z,4.40
2017-04-13T01:49:52.986Z,3.85
2017-04-13T01:50:51.366Z,4.10
2017-04-13T01:51:49.731Z,4.97
2017-04-13T01:52:48.116Z,4.30
2017-04-13T01:53:47.270Z,4.17
2017-04-13T01:54:45.681Z,4.43
2017-04-13T01:55:44.129Z,4.78
2017-04-13T01:56:42.523Z,3.85
2017-04-13T01:57:41.689Z,4.17
2017-04-13T01:58:40.096Z,4.40
2017-04-13T01:59:38.466Z,4.53
2017-04-13T02:00:37.003Z,4.33
2017-04-13T02:01:35.578Z,3.83
2017-04-13T02:02:33.967Z,3.83
2017-04-13T02:03:32.388Z,4.38
2017-04-13T02:04:31.622Z,4.47
2017-04-13T02:05:30.079Z,4.12
2017-04-13T02:06:29.229Z,3.97
2017-04-13T02:07:27.682Z,4.27
2017-04-13T02:08:26.155Z,4.63
2017-04-13T02:09:24.613Z,4.48
2017-04-13T02:10:23.776Z,5.25
2017-04-13T02:11:22.302Z,4.00
2017-04-13T02:12:20.718Z,4.25
2017-04-13T02:13:19.206Z,4.58
2017-04-13T02:14:17.654Z,4.20
2017-04-13T02:15:16.829Z,4.75
2017-04-13T02:16:15.255Z,4.13
2017-04-13T02:17:13.661Z,4.33
2017-04-13T02:18:12.431Z,3.82
2017-04-13T02:19:11.016Z,3.67
2017-04-13T02:20:09.432Z,4.68
2017-04-13T02:21:08.247Z,4.02
2017-04-13T02:22:06.630Z,4.15
2017-04-13T02:23:05.038Z,4.00
2017-04-13T02:24:03.839Z,4.00
2017-04-13T02:25:02.297Z,4.83
2017-04-13T02:26:00.754Z,3.95
2017-04-13T02:26:59.227Z,3.87
2017-04-13T02:27:57.649Z,3.65
2017-04-13T02:28:56.081Z,4.30
2017-04-13T02:29:54.476Z,4.52
2017-04-13T02:30:53.005Z,3.73
2017-04-13T02:31:51.451Z,4.02
2017-04-13T02:32:50.584Z,3.90
2017-04-13T02:33:48.989Z,3.85
2017-04-13T02:34:47.383Z,4.12
2017-04-13T02:35:46.525Z,3.82
2017-04-13T02:36:44.925Z,4.60
2017-04-13T02:37:43.326Z,3.68
2017-04-13T02:38:41.856Z,4.08
2017-04-13T02:39:40.285Z,4.18
2017-04-13T02:40:39.576Z,4.53
2017-04-13T02:41:37.965Z,4.10
2017-04-13T02:42:36.355Z,4.07
2017-04-13T02:43:34.764Z,4.42
2017-04-13T02:44:33.223Z,4.03
2017-04-13T02:45:31.647Z,4.18
2017-04-13T02:46:30.002Z,4.27
2017-04-13T02:47:28.468Z,3.82
2017-04-13T02:48:26.932Z,4.43
2017-04-13T02:49:25.294Z,4.30
2017-04-13T02:50:23.795Z,4.32
2017-04-13T02:51:22.198Z,4.22
2017-04-13T02:52:21.335Z,4.65
2017-04-13T02:53:19.742Z,4.15
2017-04-13T02:54:18.132Z,4.27
2017-04-13T02:55:16.819Z,4.63
2017-04-13T02:56:15.295Z,4.18
2017-04-13T02:57:13.754Z,4.22
2017-04-13T02:58:12.508Z,4.32
2017-04-13T02:59:10.950Z,4.13
2017-04-13T03:00:09.354Z,4.85
2017-04-13T03:01:07.737Z,4.22
2017-04-13T03:02:06.701Z,4.73
2017-04-13T03:03:05.203Z,4.20
2017-04-13T03:04:03.682Z,4.48
2017-04-13T03:05:02.664Z,4.70
2017-04-13T03:06:01.125Z,4.68
2017-04-13T03:06:59.510Z,4.08
2017-04-13T03:07:58.083Z,4.27
2017-04-13T03:08:56.503Z,4.13
2017-04-13T03:09:55.322Z,4.57
2017-04-13T03:10:53.688Z,5.40
2017-04-13T03:11:52.100Z,4.33
2017-04-13T03:12:50.481Z,5.40
2017-04-13T03:13:48.979Z,4.72
2017-04-13T03:14:47.451Z,5.10
2017-04-13T03:15:45.913Z,4.52
2017-04-13T03:16:44.332Z,4.60
2017-04-13T03:17:42.731Z,4.37
2017-04-13T03:18:41.139Z,4.60
2017-04-13T03:19:39.568Z,4.88
2017-04-13T03:20:37.979Z,5.13
2017-04-13T03:21:36.366Z,4.45
2017-04-13T03:22:34.803Z,4.75
2017-04-13T03:23:33.184Z,4.47
2017-04-13T03:24:31.607Z,4.70
2017-04-13T03:25:30.097Z,5.47
2017-04-13T03:26:28.497Z,5.10
2017-04-13T03:27:26.898Z,5.22
2017-04-13T03:28:25.326Z,4.72
2017-04-13T03:29:23.767Z,4.93
2017-04-13T03:30:22.157Z,5.02
2017-04-13T03:31:21.382Z,5.15
2017-04-13T03:32:19.767Z,4.50
2017-04-13T03:33:18.189Z,4.88
2017-04-13T03:34:16.580Z,4.78
2017-04-13T03:35:15.344Z,4.55
2017-04-13T03:36:13.814Z,4.57
2017-04-13T03:37:12.289Z,4.47
2017-04-13T03:38:10.785Z,4.93
2017-04-13T03:39:09.195Z,5.35
2017-04-13T03:40:07.690Z,5.08
2017-04-13T03:41:06.169Z,4.55
2017-04-13T03:42:04.868Z,5.57
2017-04-13T03:43:03.355Z,4.77
2017-04-13T03:44:01.740Z,5.32
2017-04-13T03:45:00.218Z,4.88
2017-04-13T03:45:58.702Z,5.17
2017-04-13T03:46:57.154Z,5.63
2017-04-13T03:47:55.573Z,4.77
2017-04-13T03:48:54.015Z,5.03
2017-04-13T03:49:52.470Z,4.63
2017-04-13T03:50:50.859Z,4.82
2017-04-13T03:51:50.049Z,4.95
2017-04-13T03:52:49.200Z,4.77
2017-04-13T03:53:47.561Z,4.93
2017-04-13T03:54:45.999Z,5.02
2017-04-13T03:55:44.449Z,4.97
2017-04-13T03:56:43.043Z,5.30
2017-04-13T03:57:41.469Z,5.38
2017-04-13T03:58:39.870Z,5.18
2017-04-13T03:59:38.317Z,4.87
2017-04-13T04:00:36.920Z,5.15
2017-04-13T04:01:35.702Z,4.97
2017-04-13T04:02:34.086Z,4.65
2017-04-13T04:03:32.819Z,4.97
2017-04-13T04:04:31.180Z,5.00
2017-04-13T04:05:30.319Z,5.55
2017-04-13T04:06:29.148Z,4.38
2017-04-13T04:07:28.310Z,4.73
2017-04-13T04:08:26.738Z,5.40
2017-04-13T04:09:25.157Z,5.35
2017-04-13T04:10:23.514Z,5.08
2017-04-13T04:11:21.907Z,5.17
2017-04-13T04:12:20.342Z,4.95
2017-04-13T04:13:18.779Z,5.33
2017-04-13T04:14:17.439Z,5.68
2017-04-13T04:15:15.975Z,5.33
2017-04-13T04:16:15.158Z,5.55
2017-04-13T04:17:13.577Z,5.57
2017-04-13T04:18:12.051Z,6.15
2017-04-13T04:19:10.481Z,4.85
2017-04-13T04:20:08.882Z,5.32
2017-04-13T04:21:07.320Z,4.78
2017-04-13T04:22:05.749Z,6.07
2017-04-13T04:23:04.280Z,5.57
2017-04-13T04:24:02.713Z,5.15
2017-04-13T04:25:01.171Z,4.65
2017-04-13T04:25:59.601Z,5.37
2017-04-13T04:26:58.140Z,5.28
2017-04-13T04:27:56.537Z,5.35
2017-04-13T04:28:55.808Z,5.22
2017-04-13T04:29:54.388Z,5.70
2017-04-13T04:30:53.715Z,5.40
2017-04-13T04:31:52.236Z,5.30
2017-04-13T04:32:50.706Z,4.85
2017-04-13T04:33:49.377Z,5.77
2017-04-13T04:34:47.934Z,5.03
2017-04-13T04:35:49.427Z,5.30
2017-04-13T04:36:47.908Z,5.17
2017-04-13T04:37:46.751Z,5.10
2017-04-13T04:38:45.301Z,5.25
2017-04-13T04:39:43.714Z,6.17
2017-04-13T04:40:43.010Z,5.40
2017-04-13T04:41:42.519Z,4.98
2017-04-13T04:42:41.039Z,5.17
2017-04-13T04:43:39.766Z,5.13
2017-04-13T04:44:38.152Z,5.75
2017-04-13T04:45:36.579Z,5.03
2017-04-13T04:46:34.967Z,5.55
2017-04-13T04:47:33.416Z,5.45
2017-04-13T04:48:31.846Z,4.85
2017-04-13T04:49:30.437Z,4.53
2017-04-13T04:50:28.839Z,5.07
2017-04-13T04:51:27.236Z,5.68
2017-04-13T04:52:25.761Z,5.25
2017-04-13T04:53:24.226Z,5.75
2017-04-13T04:54:22.669Z,5.75
2017-04-13T04:55:21.064Z,5.32
2017-04-13T04:56:19.482Z,6.20
2017-04-13T04:57:17.878Z,5.30
2017-04-13T04:58:16.248Z,6.30
2017-04-13T04:59:14.793Z,6.08
2017-04-13T05:00:13.387Z,6.05
2017-04-13T05:01:11.786Z,5.92
2017-04-13T05:02:10.255Z,5.68
2017-04-13T05:03:09.020Z,5.88
2017-04-13T05:04:07.767Z,6.35
2017-04-13T05:05:06.226Z,5.90
2017-04-13T05:06:05.570Z,5.97
2017-04-13T05:07:03.975Z,5.93
2017-04-13T05:08:02.391Z,5.73
2017-04-13T05:09:00.813Z,5.85
2017-04-13T05:09:59.192Z,5.73
2017-04-13T05:10:57.623Z,5.97
2017-04-13T05:11:57.148Z,5.70
2017-04-13T05:12:55.552Z,5.58
2017-04-13T05:13:54.319Z,5.78
2017-04-13T05:14:52.715Z,5.68
2017-04-13T05:15:52.036Z,5.70
2017-04-13T05:16:51.212Z,6.00
2017-04-13T05:17:50.466Z,5.20
2017-04-13T05:18:48.927Z,6.47
2017-04-13T05:19:47.353Z,5.92
2017-04-13T05:20:45.851Z,6.02
2017-04-13T05:21:44.304Z,5.78
2017-04-13T05:22:42.773Z,6.18
2017-04-13T05:23:42.256Z,6.62
2017-04-13T05:24:40.726Z,6.40
2017-04-13T05:25:39.220Z,6.87
2017-04-13T05:26:37.677Z,7.30
2017-04-13T05:27:37.002Z,7.50
2017-04-13T05:28:35.465Z,7.35
2017-04-13T05:29:33.852Z,7.45
2017-04-13T05:30:32.276Z,7.47
2017-04-13T05:31:31.431Z,8.22
2017-04-13T05:32:29.882Z,8.48
2017-04-13T05:33:28.290Z,8.98
2017-04-13T05:34:26.782Z,7.67
2017-04-13T05:35:25.211Z,7.80
2017-04-13T05:36:23.609Z,9.13
2017-04-13T05:37:22.051Z,8.60
2017-04-13T05:38:20.457Z,8.77
2017-04-13T05:39:19.613Z,8.65
2017-04-13T05:40:18.160Z,9.27
2017-04-13T05:41:16.553Z,8.23
2017-04-13T05:42:15.137Z,9.70
2017-04-13T05:43:13.626Z,13.30
2017-04-13T05:44:12.849Z,25.05
2017-04-13T05:45:11.294Z,16.92
2017-04-13T05:46:10.445Z,11.63
2017-04-13T05:47:08.890Z,9.97
2017-04-13T05:48:07.423Z,8.97
2017-04-13T05:49:05.871Z,8.70
2017-04-13T05:50:05.086Z,8.43
2017-04-13T05:51:03.539Z,9.03
2017-04-13T05:52:01.991Z,9.50
2017-04-13T05:53:00.375Z,7.83
2017-04-13T05:53:59.520Z,8.35
2017-04-13T05:54:57.951Z,8.87
2017-04-13T05:55:56.382Z,8.82
2017-04-13T05:56:54.748Z,8.83
2017-04-13T05:57:53.165Z,9.05
2017-04-13T05:58:51.567Z,8.42
2017-04-13T05:59:50.040Z,7.90
2017-04-13T06:00:48.683Z,8.70
2017-04-13T06:01:47.069Z,9.20
2017-04-13T06:02:45.503Z,8.37
2017-04-13T06:03:43.931Z,8.32
2017-04-13T06:04:42.358Z,8.32
2017-04-13T06:05:40.859Z,8.15
2017-04-13T06:06:39.256Z,9.10
2017-04-13T06:07:37.662Z,7.72
2017-04-13T06:08:36.117Z,7.87
2017-04-13T06:09:34.896Z,7.40
2017-04-13T06:10:33.290Z,8.60
2017-04-13T06:11:31.716Z,7.85
2017-04-13T06:12:30.208Z,7.25
2017-04-13T06:13:28.646Z,7.87
2017-04-13T06:14:27.116Z,7.02
2017-04-13T06:15:25.569Z,6.80
2017-04-13T06:16:24.362Z,7.77
2017-04-13T06:17:23.087Z,7.52
2017-04-13T06:18:22.073Z,8.07
2017-04-13T06:19:20.650Z,7.27
2017-04-13T06:20:19.074Z,7.15
2017-04-13T06:21:17.468Z,7.97
2017-04-13T06:22:15.981Z,7.08
2017-04-13T06:23:14.394Z,7.88
2017-04-13T06:24:12.811Z,7.33
2017-04-13T06:25:11.647Z,7.53
2017-04-13T06:26:10.061Z,7.17
2017-04-13T06:27:08.578Z,8.08
2017-04-13T06:28:06.998Z,8.45
2017-04-13T06:29:05.382Z,8.15
2017-04-13T06:30:03.796Z,7.80
2017-04-13T06:31:02.183Z,7.17
2017-04-13T06:32:00.649Z,7.13
2017-04-13T06:32:59.106Z,7.62
2017-04-13T06:33:59.422Z,7.20
2017-04-13T06:34:58.565Z,7.40
2017-04-13T06:35:56.999Z,7.05
2017-04-13T06:36:56.076Z,7.88
2017-04-13T06:37:54.568Z,7.65
2017-04-13T06:38:53.037Z,7.00
2017-04-13T06:39:51.446Z,7.10
2017-04-13T06:40:49.868Z,7.60
2017-04-13T06:41:48.337Z,7.70
2017-04-13T06:42:46.767Z,7.28
2017-04-13T06:43:45.171Z,6.70
2017-04-13T06:44:43.630Z,7.58
2017-04-13T06:45:42.143Z,7.82
2017-04-13T06:46:40.523Z,7.28
2017-04-13T06:47:38.920Z,7.27
2017-04-13T06:48:37.409Z,7.10
2017-04-13T06:49:35.789Z,7.38
2017-04-13T06:50:34.255Z,7.03
2017-04-13T06:51:33.074Z,6.80
2017-04-13T06:52:31.509Z,6.93
2017-04-13T06:53:29.906Z,7.60
2017-04-13T06:54:29.123Z,6.62
2017-04-13T06:55:27.506Z,6.97
2017-04-13T06:56:25.956Z,7.08
2017-04-13T06:57:24.377Z,7.32
2017-04-13T06:58:22.773Z,6.95
2017-04-13T06:59:27.949Z,7.03
2017-04-13T07:00:27.152Z,7.80
2017-04-13T07:01:25.686Z,6.62
2017-04-13T07:02:24.092Z,7.60
2017-04-13T07:03:22.491Z,6.98
2017-04-13T07:04:20.912Z,8.52
2017-04-13T07:05:20.067Z,7.68
2017-04-13T07:06:18.497Z,8.65
2017-04-13T07:07:17.031Z,8.12
2017-04-13T07:08:15.544Z,8.70
2017-04-13T07:09:14.036Z,8.88
2017-04-13T07:10:12.480Z,8.85
2017-04-13T07:11:10.938Z,7.88
2017-04-13T07:12:09.473Z,7.58
2017-04-13T07:13:07.877Z,7.75
2017-04-13T07:14:07.276Z,7.37
2017-04-13T07:15:06.284Z,7.67
2017-04-13T07:16:04.711Z,7.10
2017-04-13T07:17:03.858Z,7.10
2017-04-13T07:18:02.328Z,8.23
2017-04-13T07:19:00.715Z,7.58
2017-04-13T07:19:59.300Z,7.35
2017-04-13T07:20:57.725Z,8.40
2017-04-13T07:21:56.202Z,7.55
2017-04-13T07:22:55.348Z,7.15
2017-04-13T07:23:53.783Z,7.90
2017-04-13T07:24:52.219Z,7.12
2017-04-13T07:25:50.978Z,8.65
2017-04-13T07:26:49.435Z,8.42
2017-04-13T07:27:47.867Z,8.15
2017-04-13T07:28:46.279Z,7.97
2017-04-13T07:29:45.289Z,8.03
2017-04-13T07:30:43.816Z,7.22
2017-04-13T07:31:43.018Z,8.33
2017-04-13T07:32:42.146Z,7.50
2017-04-13T07:33:40.537Z,8.85
2017-04-13T07:34:38.945Z,9.37
2017-04-13T07:35:37.395Z,8.22
2017-04-13T07:36:35.812Z,7.12
2017-04-13T07:37:34.349Z,8.03
2017-04-13T07:38:33.494Z,7.60
2017-04-13T07:39:31.904Z,7.53
2017-04-13T07:40:31.921Z,7.80
2017-04-13T07:41:30.417Z,7.30
2017-04-13T07:42:29.859Z,7.08
2017-04-13T07:43:28.337Z,7.48
2017-04-13T07:44:26.745Z,7.50
2017-04-13T07:45:25.152Z,7.05
2017-04-13T07:46:23.559Z,6.73
2017-04-13T07:47:22.096Z,8.07
2017-04-13T07:48:20.708Z,7.92
2017-04-13T07:49:19.949Z,6.78
2017-04-13T07:50:18.803Z,7.20
2017-04-13T07:51:17.229Z,6.68
2017-04-13T07:52:15.869Z,7.10
2017-04-13T07:53:14.329Z,6.80
2017-04-13T07:54:12.905Z,7.15
2017-04-13T07:55:11.515Z,7.48
2017-04-13T07:56:10.067Z,7.52
2017-04-13T07:57:08.574Z,7.68
2017-04-13T07:58:07.803Z,7.62
2017-04-13T07:59:06.266Z,7.58
2017-04-13T08:00:04.756Z,6.75
2017-04-13T08:01:03.199Z,7.50
2017-04-13T08:02:01.635Z,6.77
2017-04-13T08:03:00.090Z,7.22
2017-04-13T08:03:58.657Z,6.73
2017-04-13T08:04:57.066Z,6.52
2017-04-13T08:05:55.512Z,6.85
2017-04-13T08:06:54.758Z,7.08
2017-04-13T08:07:53.148Z,6.37
2017-04-13T08:08:51.580Z,6.08
2017-04-13T08:09:49.955Z,6.30
2017-04-13T08:10:48.398Z,6.35
2017-04-13T08:11:46.902Z,6.28
2017-04-13T08:12:45.390Z,5.33
2017-04-13T08:13:43.862Z,6.27
2017-04-13T08:14:42.256Z,6.52
2017-04-13T08:15:40.611Z,6.93
2017-04-13T08:16:39.120Z,6.83
2017-04-13T08:17:38.269Z,6.97
2017-04-13T08:18:36.689Z,6.58
2017-04-13T08:19:35.101Z,6.02
2017-04-13T08:20:33.568Z,6.25
2017-04-13T08:21:31.965Z,6.02
2017-04-13T08:22:30.509Z,5.67
2017-04-13T08:23:28.993Z,6.55
2017-04-13T08:24:27.429Z,5.85
2017-04-13T08:25:25.851Z,5.18
2017-04-13T08:26:24.226Z,5.95
2017-04-13T08:27:22.631Z,5.98
2017-04-13T08:28:21.142Z,7.70
2017-04-13T08:29:19.545Z,7.82
2017-04-13T08:30:17.941Z,7.53
2017-04-13T08:31:16.391Z,7.25
2017-04-13T08:32:15.525Z,7.18
2017-04-13T08:33:14.023Z,7.15
2017-04-13T08:34:14.249Z,7.45
2017-04-13T08:35:13.419Z,7.10
2017-04-13T08:36:11.908Z,6.63
2017-04-13T08:37:11.456Z,6.80
2017-04-13T08:38:09.924Z,7.35
2017-04-13T08:39:09.893Z,6.22
2017-04-13T08:40:08.319Z,6.88
2017-04-13T08:41:06.800Z,6.68
2017-04-13T08:42:05.207Z,6.87
2017-04-13T08:43:03.610Z,6.33
2017-04-13T08:44:02.039Z,7.00
2017-04-13T08:45:00.461Z,6.28
2017-04-13T08:45:58.856Z,6.47
2017-04-13T08:46:57.272Z,6.60
2017-04-13T08:47:55.665Z,6.43
2017-04-13T08:48:54.099Z,6.48
2017-04-13T08:49:52.555Z,6.90
2017-04-13T08:50:50.957Z,5.90
2017-04-13T08:51:49.367Z,6.13
2017-04-13T08:52:47.773Z,6.63
2017-04-13T08:53:46.309Z,5.72
2017-04-13T08:54:44.725Z,5.42
2017-04-13T08:55:43.266Z,5.27
2017-04-13T08:56:42.437Z,5.48
2017-04-13T08:57:40.986Z,5.93
2017-04-13T08:58:40.146Z,6.00
2017-04-13T08:59:39.083Z,4.97
2017-04-13T09:00:38.156Z,6.12
2017-04-13T09:01:36.902Z,5.58
2017-04-13T09:02:35.434Z,5.93
2017-04-13T09:03:33.851Z,6.27
2017-04-13T09:04:32.234Z,5.12
2017-04-13T09:05:30.665Z,5.98
2017-04-13T09:06:29.054Z,4.87
2017-04-13T09:07:28.186Z,5.15
2017-04-13T09:08:26.573Z,5.63
2017-04-13T09:09:25.010Z,5.10
2017-04-13T09:10:23.455Z,5.78
2017-04-13T09:11:21.831Z,6.07
2017-04-13T09:12:20.269Z,6.05
2017-04-13T09:13:18.807Z,6.82
2017-04-13T09:14:18.032Z,5.80
2017-04-13T09:15:16.500Z,5.67
2017-04-13T09:16:14.948Z,5.83
2017-04-13T09:17:13.343Z,6.53
2017-04-13T09:18:11.795Z,6.73
2017-04-13T09:19:10.209Z,5.33
2017-04-13T09:20:08.944Z,5.17
2017-04-13T09:21:07.352Z,5.83
2017-04-13T09:22:05.826Z,5.18
2017-04-13T09:23:04.250Z,5.93
2017-04-13T09:24:02.674Z,5.30
2017-04-13T09:25:01.186Z,5.13
2017-04-13T09:25:59.638Z,5.20
2017-04-13T09:26:58.032Z,5.15
2017-04-13T09:27:56.623Z,5.03
2017-04-13T09:28:55.213Z,5.27
2017-04-13T09:29:53.599Z,4.92
2017-04-13T09:30:52.061Z,5.90
2017-04-13T09:31:50.615Z,5.73
2017-04-13T09:32:48.996Z,5.67
2017-04-13T09:33:47.368Z,4.72
2017-04-13T09:34:45.757Z,5.33
2017-04-13T09:35:44.190Z,6.00
2017-04-13T09:36:42.604Z,5.23
2017-04-13T09:37:41.040Z,5.13
2017-04-13T09:38:39.438Z,5.70
2017-04-13T09:39:38.962Z,5.55
2017-04-13T09:40:37.402Z,4.33
2017-04-13T09:41:35.811Z,5.28
2017-04-13T09:42:34.279Z,4.82
2017-04-13T09:43:32.668Z,5.47
2017-04-13T09:44:31.089Z,4.38
2017-04-13T09:45:29.552Z,5.35
2017-04-13T09:46:27.938Z,4.85
2017-04-13T09:47:27.365Z,4.37
2017-04-13T09:48:25.803Z,4.32
2017-04-13T09:49:24.947Z,4.60
2017-04-13T09:50:23.394Z,4.55
2017-04-13T09:51:21.808Z,4.53
2017-04-13T09:52:20.344Z,4.20
2017-04-13T09:53:19.098Z,4.00
2017-04-13T09:54:17.531Z,3.67
2017-04-13T09:55:15.926Z,3.23
2017-04-13T09:56:15.076Z,2.93
2017-04-13T09:57:13.479Z,3.37
2017-04-13T09:58:11.859Z,3.68
2017-04-13T09:59:10.648Z,3.32
2017-04-13T10:00:09.105Z,3.58
2017-04-13T10:01:08.271Z,3.45
2017-04-13T10:02:06.651Z,3.58
2017-04-13T10:03:05.102Z,4.02
2017-04-13T10:04:03.515Z,3.73
2017-04-13T10:05:01.917Z,4.05
2017-04-13T10:06:00.649Z,3.93
2017-04-13T10:06:59.114Z,4.25
2017-04-13T10:07:57.521Z,4.33
2017-04-13T10:08:55.902Z,4.00
2017-04-13T10:09:54.361Z,3.85
2017-04-13T10:10:52.770Z,3.67
2017-04-13T10:11:51.559Z,2.78
2017-04-13T10:12:50.018Z,2.50
2017-04-13T10:13:48.494Z,2.85
2017-04-13T10:14:47.678Z,3.25
2017-04-13T10:15:46.137Z,3.17
2017-04-13T10:16:44.567Z,2.95
2017-04-13T10:17:42.952Z,3.98
2017-04-13T10:18:41.402Z,3.35
2017-04-13T10:19:39.834Z,3.50
2017-04-13T10:20:38.969Z,3.22
2017-04-13T10:21:37.458Z,3.48
2017-04-13T10:22:35.894Z,3.03
2017-04-13T10:23:34.322Z,3.80
2017-04-13T10:24:33.527Z,2.43
2017-04-13T10:25:32.015Z,3.23
2017-04-13T10:26:30.661Z,3.17
2017-04-13T10:27:29.833Z,2.90
2017-04-13T10:28:28.387Z,2.60
2017-04-13T10:29:26.901Z,3.00
2017-04-13T10:30:25.384Z,2.37
2017-04-13T10:31:23.923Z,3.03
2017-04-13T10:32:22.502Z,3.10
2017-04-13T10:33:20.930Z,2.88
2017-04-13T10:34:19.506Z,3.27
2017-04-13T10:35:18.030Z,2.72
2017-04-13T10:36:17.187Z,3.72
2017-04-13T10:37:15.601Z,3.75
2017-04-13T10:38:14.075Z,3.82
2017-04-13T10:39:12.486Z,3.58
2017-04-13T10:40:10.896Z,3.52
2017-04-13T10:41:09.329Z,3.47
2017-04-13T10:42:07.748Z,3.25
2017-04-13T10:43:06.151Z,3.30
2017-04-13T10:44:04.538Z,2.83
2017-04-13T10:45:03.297Z,2.77
2017-04-13T10:46:01.889Z,2.50
2017-04-13T10:47:00.272Z,2.78
2017-04-13T10:47:58.711Z,3.10
2017-04-13T10:48:57.835Z,3.02
2017-04-13T10:49:56.234Z,2.97
2017-04-13T10:50:54.613Z,2.70
2017-04-13T10:51:53.111Z,2.47
2017-04-13T10:52:51.842Z,2.67
2017-04-13T10:53:50.332Z,2.35
2017-04-13T10:54:48.798Z,2.88
2017-04-13T10:55:47.288Z,2.95
2017-04-13T10:56:45.790Z,3.08
2017-04-13T10:57:44.277Z,3.00
2017-04-13T10:58:42.737Z,3.25
2017-04-13T10:59:41.170Z,2.65
2017-04-13T11:00:39.626Z,3.10
2017-04-13T11:01:38.177Z,2.55
2017-04-13T11:02:36.631Z,2.72
2017-04-13T11:03:35.803Z,3.20
2017-04-13T11:04:34.285Z,2.85
2017-04-13T11:05:32.669Z,2.97
2017-04-13T11:06:31.849Z,3.15
2017-04-13T11:07:30.967Z,3.20
2017-04-13T11:08:29.468Z,3.23
2017-04-13T11:09:28.048Z,3.10
2017-04-13T11:10:26.468Z,3.18
2017-04-13T11:11:24.866Z,3.00
2017-04-13T11:12:23.252Z,3.02
2017-04-13T11:13:21.665Z,3.05
2017-04-13T11:14:20.071Z,3.47
2017-04-13T11:15:18.619Z,3.45
2017-04-13T11:16:17.142Z,3.63
2017-04-13T11:17:15.607Z,3.18
2017-04-13T11:18:14.061Z,3.15
2017-04-13T11:19:12.495Z,2.80
2017-04-13T11:20:10.896Z,2.85
2017-04-13T11:21:09.377Z,2.98
2017-04-13T11:22:07.782Z,2.88
2017-04-13T11:23:06.185Z,2.83
2017-04-13T11:24:04.584Z,3.18
2017-04-13T11:25:03.053Z,3.13
2017-04-13T11:26:01.460Z,3.62
2017-04-13T11:27:00.236Z,3.15
2017-04-13T11:27:58.613Z,3.43
2017-04-13T11:28:57.315Z,2.47
2017-04-13T11:29:55.740Z,2.82
2017-04-13T11:30:54.111Z,2.40
2017-04-13T11:31:52.510Z,2.82
2017-04-13T11:32:51.356Z,2.80
2017-04-13T11:33:49.763Z,2.88
2017-04-13T11:34:48.175Z,2.47
2017-04-13T11:35:46.578Z,4.03
2017-04-13T11:36:44.973Z,3.32
2017-04-13T11:37:43.475Z,3.32
2017-04-13T11:38:41.850Z,3.65
2017-04-13T11:39:40.257Z,3.35
2017-04-13T11:40:38.686Z,3.37
2017-04-13T11:41:37.095Z,3.48
2017-04-13T11:42:36.257Z,3.28
2017-04-13T11:43:34.757Z,2.87
2017-04-13T11:44:33.958Z,3.00
2017-04-13T11:45:33.137Z,3.30
2017-04-13T11:46:32.291Z,3.10
2017-04-13T11:47:31.127Z,2.87
2017-04-13T11:48:29.582Z,3.07
2017-04-13T11:49:27.987Z,2.32
2017-04-13T11:50:26.378Z,2.93
2017-04-13T11:51:24.817Z,3.60
2017-04-13T11:52:23.232Z,5.20
2017-04-13T11:53:21.594Z,3.20
2017-04-13T11:54:20.002Z,9.17
2017-04-13T11:55:18.455Z,9.60
2017-04-13T11:56:16.934Z,4.87
2017-04-13T11:57:16.120Z,9.88
2017-04-13T11:58:14.502Z,16.90
2017-04-13T11:59:13.239Z,4.55
2017-04-13T12:00:11.656Z,3.10
2017-04-13T12:01:10.471Z,5.38
2017-04-13T12:02:08.871Z,3.08
2017-04-13T12:03:07.325Z,2.83
2017-04-13T12:04:05.782Z,3.13
2017-04-13T12:05:04.192Z,2.83
2017-04-13T12:06:03.399Z,2.57
2017-04-13T12:07:01.829Z,3.08
2017-04-13T12:08:00.254Z,2.30
2017-04-13T12:08:59.017Z,2.38
2017-04-13T12:09:57.426Z,2.38
2017-04-13T12:10:55.870Z,2.83
2017-04-13T12:11:54.298Z,2.88
2017-04-13T12:12:53.596Z,2.37
2017-04-13T12:13:52.049Z,2.52
2017-04-13T12:14:50.794Z,2.70
2017-04-13T12:15:49.190Z,2.35
2017-04-13T12:16:47.886Z,2.60
2017-04-13T12:17:47.063Z,2.50
2017-04-13T12:18:45.529Z,2.12
2017-04-13T12:19:43.943Z,2.32
2017-04-13T12:20:42.426Z,2.12
2017-04-13T12:21:40.875Z,2.97
2017-04-13T12:22:39.628Z,2.73
2017-04-13T12:23:38.307Z,2.90
2017-04-13T12:24:37.471Z,2.52
2017-04-13T12:25:35.887Z,2.30
2017-04-13T12:26:34.258Z,2.60
2017-04-13T12:27:32.692Z,2.60
2017-04-13T12:28:31.120Z,2.63
2017-04-13T12:29:29.511Z,2.35
2017-04-13T12:30:27.928Z,2.97
2017-04-13T12:31:26.449Z,2.88
2017-04-13T12:32:24.858Z,2.67
2017-04-13T12:33:23.324Z,2.62
2017-04-13T12:34:21.791Z,2.65
2017-04-13T12:35:20.932Z,2.72
2017-04-13T12:36:19.345Z,3.25
2017-04-13T12:37:18.499Z,3.05
2017-04-13T12:38:17.848Z,2.95
2017-04-13T12:39:16.320Z,3.92
2017-04-13T12:40:14.736Z,3.03
2017-04-13T12:41:13.391Z,3.03
2017-04-13T12:42:11.792Z,3.28
2017-04-13T12:43:10.202Z,3.35
2017-04-13T12:44:09.366Z,3.67
2017-04-13T12:45:08.587Z,3.68
2017-04-13T12:46:07.040Z,3.20
2017-04-13T12:47:05.704Z,3.52
2017-04-13T12:48:04.106Z,3.13
2017-04-13T12:49:02.490Z,3.52
2017-04-13T12:50:00.902Z,3.47
2017-04-13T12:50:59.351Z,9.27
2017-04-13T12:51:57.762Z,5.03
2017-04-13T12:52:56.543Z,3.75
2017-04-13T12:53:54.946Z,3.35
2017-04-13T12:54:53.782Z,3.97
2017-04-13T12:55:52.179Z,4.05
2017-04-13T12:56:50.945Z,4.23
2017-04-13T12:57:49.368Z,4.20
2017-04-13T12:58:47.755Z,4.08
2017-04-13T12:59:46.160Z,4.22